sensor_id;sensor_type;location;lat;lon;timestamp;P1;durP1;ratioP1;P2;durP2;ratioP2
68718;SDS011;55696;52.138;5.444;2023-08-20T00:01:04;13.05;;;4.82;;
68718;SDS011;55696;52.138;5.444;2023-08-20T00:03:31;9.02;;;4.50;;
68718;SDS011;55696;52.138;5.444;2023-08-20T00:05:59;12.05;;;4.25;;
68718;SDS011;55696;52.138;5.444;2023-08-20T00:08:26;9.52;;;3.97;;
68718;SDS011;55696;52.138;5.444;2023-08-20T00:10:52;9.03;;;4.30;;
68718;SDS011;55696;52.138;5.444;2023-08-20T00:13:19;12.45;;;5.00;;
68718;SDS011;55696;52.138;5.444;2023-08-20T00:15:46;10.38;;;4.93;;
68718;SDS011;55696;52.138;5.444;2023-08-20T00:18:15;15.18;;;4.55;;
68718;SDS011;55696;52.138;5.444;2023-08-20T00:20:42;14.02;;;4.95;;
68718;SDS011;55696;52.138;5.444;2023-08-20T00:23:11;11.53;;;4.67;;
68718;SDS011;55696;52.138;5.444;2023-08-20T00:25:39;10.02;;;4.28;;
68718;SDS011;55696;52.138;5.444;2023-08-20T00:28:06;11.32;;;4.85;;
68718;SDS011;55696;52.138;5.444;2023-08-20T00:30:32;11.60;;;4.78;;
68718;SDS011;55696;52.138;5.444;2023-08-20T00:32:59;11.60;;;4.28;;
68718;SDS011;55696;52.138;5.444;2023-08-20T00:35:26;13.33;;;4.80;;
68718;SDS011;55696;52.138;5.444;2023-08-20T00:37:53;12.25;;;4.47;;
68718;SDS011;55696;52.138;5.444;2023-08-20T00:40:20;14.30;;;5.05;;
68718;SDS011;55696;52.138;5.444;2023-08-20T00:42:47;9.15;;;4.40;;
68718;SDS011;55696;52.138;5.444;2023-08-20T00:45:13;17.02;;;5.18;;
68718;SDS011;55696;52.138;5.444;2023-08-20T00:47:42;11.17;;;4.93;;
68718;SDS011;55696;52.138;5.444;2023-08-20T00:50:09;12.55;;;4.85;;
68718;SDS011;55696;52.138;5.444;2023-08-20T00:52:38;13.98;;;4.47;;
68718;SDS011;55696;52.138;5.444;2023-08-20T00:55:07;12.93;;;4.50;;
68718;SDS011;55696;52.138;5.444;2023-08-20T00:57:38;12.38;;;4.80;;
68718;SDS011;55696;52.138;5.444;2023-08-20T01:00:07;10.60;;;4.10;;
68718;SDS011;55696;52.138;5.444;2023-08-20T01:02:36;9.88;;;3.65;;
68718;SDS011;55696;52.138;5.444;2023-08-20T01:05:05;11.60;;;4.40;;
68718;SDS011;55696;52.138;5.444;2023-08-20T01:07:53;12.20;;;4.68;;
68718;SDS011;55696;52.138;5.444;2023-08-20T01:10:42;10.98;;;4.63;;
68718;SDS011;55696;52.138;5.444;2023-08-20T01:13:22;11.70;;;5.10;;
68718;SDS011;55696;52.138;5.444;2023-08-20T01:15:49;11.18;;;4.35;;
68718;SDS011;55696;52.138;5.444;2023-08-20T01:18:16;13.43;;;4.53;;
68718;SDS011;55696;52.138;5.444;2023-08-20T01:20:45;10.80;;;4.70;;
68718;SDS011;55696;52.138;5.444;2023-08-20T01:23:29;11.05;;;4.30;;
68718;SDS011;55696;52.138;5.444;2023-08-20T01:26:08;14.83;;;4.70;;
68718;SDS011;55696;52.138;5.444;2023-08-20T01:28:42;8.77;;;4.70;;
68718;SDS011;55696;52.138;5.444;2023-08-20T01:31:11;8.70;;;3.83;;
68718;SDS011;55696;52.138;5.444;2023-08-20T01:33:39;11.00;;;4.80;;
68718;SDS011;55696;52.138;5.444;2023-08-20T01:36:07;14.82;;;4.80;;
68718;SDS011;55696;52.138;5.444;2023-08-20T01:38:39;11.03;;;4.50;;
68718;SDS011;55696;52.138;5.444;2023-08-20T01:41:06;8.93;;;4.25;;
68718;SDS011;55696;52.138;5.444;2023-08-20T01:43:33;13.15;;;5.40;;
68718;SDS011;55696;52.138;5.444;2023-08-20T01:46:00;13.55;;;5.43;;
68718;SDS011;55696;52.138;5.444;2023-08-20T01:48:27;16.02;;;5.63;;
68718;SDS011;55696;52.138;5.444;2023-08-20T01:50:54;10.27;;;4.70;;
68718;SDS011;55696;52.138;5.444;2023-08-20T01:53:20;14.30;;;5.22;;
68718;SDS011;55696;52.138;5.444;2023-08-20T01:55:48;12.57;;;4.93;;
68718;SDS011;55696;52.138;5.444;2023-08-20T01:58:14;12.95;;;5.15;;
68718;SDS011;55696;52.138;5.444;2023-08-20T02:00:41;10.98;;;5.05;;
68718;SDS011;55696;52.138;5.444;2023-08-20T02:03:08;12.10;;;5.07;;
68718;SDS011;55696;52.138;5.444;2023-08-20T02:05:36;12.82;;;4.70;;
68718;SDS011;55696;52.138;5.444;2023-08-20T02:08:07;9.23;;;4.45;;
68718;SDS011;55696;52.138;5.444;2023-08-20T02:10:35;11.70;;;4.82;;
68718;SDS011;55696;52.138;5.444;2023-08-20T02:13:04;12.15;;;4.68;;
68718;SDS011;55696;52.138;5.444;2023-08-20T02:15:31;13.43;;;4.53;;
68718;SDS011;55696;52.138;5.444;2023-08-20T02:17:58;11.57;;;4.72;;
68718;SDS011;55696;52.138;5.444;2023-08-20T02:20:28;14.07;;;4.80;;
68718;SDS011;55696;52.138;5.444;2023-08-20T02:22:55;13.43;;;5.82;;
68718;SDS011;55696;52.138;5.444;2023-08-20T02:25:23;12.20;;;4.40;;
68718;SDS011;55696;52.138;5.444;2023-08-20T02:27:53;10.27;;;4.80;;
68718;SDS011;55696;52.138;5.444;2023-08-20T02:30:20;9.43;;;4.32;;
68718;SDS011;55696;52.138;5.444;2023-08-20T02:32:47;11.50;;;4.57;;
68718;SDS011;55696;52.138;5.444;2023-08-20T02:35:14;9.80;;;4.82;;
68718;SDS011;55696;52.138;5.444;2023-08-20T02:37:43;8.82;;;4.90;;
68718;SDS011;55696;52.138;5.444;2023-08-20T02:40:10;9.80;;;4.60;;
68718;SDS011;55696;52.138;5.444;2023-08-20T02:42:38;13.82;;;5.05;;
68718;SDS011;55696;52.138;5.444;2023-08-20T02:45:05;14.02;;;5.35;;
68718;SDS011;55696;52.138;5.444;2023-08-20T02:47:32;11.80;;;5.13;;
68718;SDS011;55696;52.138;5.444;2023-08-20T02:49:59;10.43;;;4.63;;
68718;SDS011;55696;52.138;5.444;2023-08-20T02:52:26;12.20;;;5.47;;
68718;SDS011;55696;52.138;5.444;2023-08-20T02:54:52;9.38;;;4.55;;
68718;SDS011;55696;52.138;5.444;2023-08-20T02:57:19;17.08;;;5.43;;
68718;SDS011;55696;52.138;5.444;2023-08-20T02:59:47;11.30;;;4.93;;
68718;SDS011;55696;52.138;5.444;2023-08-20T03:02:14;14.90;;;5.28;;
68718;SDS011;55696;52.138;5.444;2023-08-20T03:04:41;15.07;;;5.80;;
68718;SDS011;55696;52.138;5.444;2023-08-20T03:07:08;13.27;;;6.38;;
68718;SDS011;55696;52.138;5.444;2023-08-20T03:09:35;12.50;;;5.63;;
68718;SDS011;55696;52.138;5.444;2023-08-20T03:12:02;10.90;;;4.93;;
68718;SDS011;55696;52.138;5.444;2023-08-20T03:14:28;13.05;;;6.13;;
68718;SDS011;55696;52.138;5.444;2023-08-20T03:16:55;15.40;;;6.50;;
68718;SDS011;55696;52.138;5.444;2023-08-20T03:19:22;11.43;;;5.68;;
68718;SDS011;55696;52.138;5.444;2023-08-20T03:21:49;13.63;;;5.85;;
68718;SDS011;55696;52.138;5.444;2023-08-20T03:24:16;10.65;;;5.43;;
68718;SDS011;55696;52.138;5.444;2023-08-20T03:26:42;12.45;;;6.18;;
68718;SDS011;55696;52.138;5.444;2023-08-20T03:29:09;13.40;;;5.57;;
68718;SDS011;55696;52.138;5.444;2023-08-20T03:31:38;10.63;;;5.97;;
68718;SDS011;55696;52.138;5.444;2023-08-20T03:34:05;10.63;;;4.97;;
68718;SDS011;55696;52.138;5.444;2023-08-20T03:36:32;10.70;;;4.97;;
68718;SDS011;55696;52.138;5.444;2023-08-20T03:38:59;10.85;;;6.13;;
68718;SDS011;55696;52.138;5.444;2023-08-20T03:41:26;15.53;;;6.37;;
68718;SDS011;55696;52.138;5.444;2023-08-20T03:43:53;9.68;;;5.75;;
68718;SDS011;55696;52.138;5.444;2023-08-20T03:46:20;15.57;;;5.53;;
68718;SDS011;55696;52.138;5.444;2023-08-20T03:48:46;11.15;;;5.47;;
68718;SDS011;55696;52.138;5.444;2023-08-20T03:51:13;12.48;;;4.85;;
68718;SDS011;55696;52.138;5.444;2023-08-20T03:53:40;14.07;;;5.83;;
68718;SDS011;55696;52.138;5.444;2023-08-20T03:56:07;13.65;;;5.13;;
68718;SDS011;55696;52.138;5.444;2023-08-20T03:58:34;11.20;;;5.20;;
68718;SDS011;55696;52.138;5.444;2023-08-20T04:01:01;10.65;;;5.53;;
68718;SDS011;55696;52.138;5.444;2023-08-20T04:03:28;16.67;;;5.82;;
68718;SDS011;55696;52.138;5.444;2023-08-20T04:05:55;11.20;;;5.53;;
68718;SDS011;55696;52.138;5.444;2023-08-20T04:08:22;14.27;;;6.07;;
68718;SDS011;55696;52.138;5.444;2023-08-20T04:10:49;10.25;;;5.45;;
68718;SDS011;55696;52.138;5.444;2023-08-20T04:13:15;14.10;;;6.28;;
68718;SDS011;55696;52.138;5.444;2023-08-20T04:15:42;14.98;;;6.03;;
68718;SDS011;55696;52.138;5.444;2023-08-20T04:18:09;11.47;;;5.17;;
68718;SDS011;55696;52.138;5.444;2023-08-20T04:20:36;14.45;;;5.63;;
68718;SDS011;55696;52.138;5.444;2023-08-20T04:23:03;15.77;;;5.80;;
68718;SDS011;55696;52.138;5.444;2023-08-20T04:25:30;9.85;;;5.00;;
68718;SDS011;55696;52.138;5.444;2023-08-20T04:27:57;12.45;;;5.22;;
68718;SDS011;55696;52.138;5.444;2023-08-20T04:30:24;11.20;;;4.57;;
68718;SDS011;55696;52.138;5.444;2023-08-20T04:32:51;11.82;;;6.10;;
68718;SDS011;55696;52.138;5.444;2023-08-20T04:35:18;10.23;;;5.28;;
68718;SDS011;55696;52.138;5.444;2023-08-20T04:37:46;8.60;;;4.80;;
68718;SDS011;55696;52.138;5.444;2023-08-20T04:40:13;10.27;;;4.57;;
68718;SDS011;55696;52.138;5.444;2023-08-20T04:42:42;15.07;;;5.27;;
68718;SDS011;55696;52.138;5.444;2023-08-20T04:45:11;14.00;;;5.53;;
68718;SDS011;55696;52.138;5.444;2023-08-20T04:47:38;13.32;;;5.32;;
68718;SDS011;55696;52.138;5.444;2023-08-20T04:50:06;10.60;;;4.60;;
68718;SDS011;55696;52.138;5.444;2023-08-20T04:52:34;10.70;;;4.78;;
68718;SDS011;55696;52.138;5.444;2023-08-20T04:55:01;12.10;;;5.27;;
68718;SDS011;55696;52.138;5.444;2023-08-20T04:57:28;13.38;;;4.90;;
68718;SDS011;55696;52.138;5.444;2023-08-20T04:59:56;11.20;;;4.85;;
68718;SDS011;55696;52.138;5.444;2023-08-20T05:02:35;9.15;;;5.22;;
68718;SDS011;55696;52.138;5.444;2023-08-20T05:05:04;14.40;;;5.45;;
68718;SDS011;55696;52.138;5.444;2023-08-20T05:07:31;11.97;;;5.90;;
68718;SDS011;55696;52.138;5.444;2023-08-20T05:09:58;14.32;;;4.97;;
68718;SDS011;55696;52.138;5.444;2023-08-20T05:12:25;7.88;;;4.60;;
68718;SDS011;55696;52.138;5.444;2023-08-20T05:14:52;13.30;;;5.13;;
68718;SDS011;55696;52.138;5.444;2023-08-20T05:17:19;14.13;;;6.32;;
68718;SDS011;55696;52.138;5.444;2023-08-20T05:19:46;10.53;;;5.10;;
68718;SDS011;55696;52.138;5.444;2023-08-20T05:22:14;11.95;;;5.22;;
68718;SDS011;55696;52.138;5.444;2023-08-20T05:24:40;14.30;;;5.95;;
68718;SDS011;55696;52.138;5.444;2023-08-20T05:27:12;14.00;;;5.28;;
68718;SDS011;55696;52.138;5.444;2023-08-20T05:29:49;13.13;;;5.22;;
68718;SDS011;55696;52.138;5.444;2023-08-20T05:32:17;8.03;;;4.20;;
68718;SDS011;55696;52.138;5.444;2023-08-20T05:34:44;9.38;;;5.20;;
68718;SDS011;55696;52.138;5.444;2023-08-20T05:37:11;13.98;;;5.20;;
68718;SDS011;55696;52.138;5.444;2023-08-20T05:39:42;9.95;;;5.38;;
68718;SDS011;55696;52.138;5.444;2023-08-20T05:42:10;10.75;;;5.07;;
68718;SDS011;55696;52.138;5.444;2023-08-20T05:44:41;13.27;;;5.87;;
68718;SDS011;55696;52.138;5.444;2023-08-20T05:47:12;13.40;;;5.65;;
68718;SDS011;55696;52.138;5.444;2023-08-20T05:49:38;11.52;;;5.20;;
68718;SDS011;55696;52.138;5.444;2023-08-20T05:52:05;12.23;;;4.88;;
68718;SDS011;55696;52.138;5.444;2023-08-20T05:54:33;10.80;;;5.40;;
68718;SDS011;55696;52.138;5.444;2023-08-20T05:57:00;12.33;;;4.80;;
68718;SDS011;55696;52.138;5.444;2023-08-20T05:59:28;10.77;;;4.70;;
68718;SDS011;55696;52.138;5.444;2023-08-20T06:01:54;10.43;;;4.90;;
68718;SDS011;55696;52.138;5.444;2023-08-20T06:04:21;9.98;;;4.40;;
68718;SDS011;55696;52.138;5.444;2023-08-20T06:06:48;12.35;;;4.38;;
68718;SDS011;55696;52.138;5.444;2023-08-20T06:09:15;10.57;;;4.53;;
68718;SDS011;55696;52.138;5.444;2023-08-20T06:11:42;15.02;;;5.57;;
68718;SDS011;55696;52.138;5.444;2023-08-20T06:14:09;12.65;;;4.25;;
68718;SDS011;55696;52.138;5.444;2023-08-20T06:16:36;10.85;;;4.55;;
68718;SDS011;55696;52.138;5.444;2023-08-20T06:19:03;11.18;;;4.22;;
68718;SDS011;55696;52.138;5.444;2023-08-20T06:21:30;8.87;;;4.67;;
68718;SDS011;55696;52.138;5.444;2023-08-20T06:23:57;10.18;;;4.38;;
68718;SDS011;55696;52.138;5.444;2023-08-20T06:26:24;10.98;;;4.20;;
68718;SDS011;55696;52.138;5.444;2023-08-20T06:28:50;12.23;;;4.07;;
68718;SDS011;55696;52.138;5.444;2023-08-20T06:31:17;14.13;;;4.40;;
68718;SDS011;55696;52.138;5.444;2023-08-20T06:33:44;10.47;;;4.30;;
68718;SDS011;55696;52.138;5.444;2023-08-20T06:36:12;8.15;;;3.58;;
68718;SDS011;55696;52.138;5.444;2023-08-20T06:38:39;13.85;;;4.90;;
68718;SDS011;55696;52.138;5.444;2023-08-20T06:41:06;8.27;;;3.53;;
68718;SDS011;55696;52.138;5.444;2023-08-20T06:43:33;12.93;;;4.10;;
68718;SDS011;55696;52.138;5.444;2023-08-20T06:45:59;10.47;;;3.37;;
68718;SDS011;55696;52.138;5.444;2023-08-20T06:48:26;10.18;;;3.83;;
68718;SDS011;55696;52.138;5.444;2023-08-20T06:50:53;10.65;;;3.80;;
68718;SDS011;55696;52.138;5.444;2023-08-20T06:53:20;11.57;;;3.08;;
68718;SDS011;55696;52.138;5.444;2023-08-20T06:55:47;8.93;;;2.90;;
68718;SDS011;55696;52.138;5.444;2023-08-20T06:58:13;10.03;;;3.23;;
68718;SDS011;55696;52.138;5.444;2023-08-20T07:00:41;11.13;;;2.70;;
68718;SDS011;55696;52.138;5.444;2023-08-20T07:03:07;11.27;;;2.83;;
68718;SDS011;55696;52.138;5.444;2023-08-20T07:05:34;13.98;;;3.53;;
68718;SDS011;55696;52.138;5.444;2023-08-20T07:08:01;7.38;;;2.80;;
68718;SDS011;55696;52.138;5.444;2023-08-20T07:10:27;11.60;;;3.13;;
68718;SDS011;55696;52.138;5.444;2023-08-20T07:12:54;15.80;;;3.55;;
68718;SDS011;55696;52.138;5.444;2023-08-20T07:15:21;9.95;;;2.42;;
68718;SDS011;55696;52.138;5.444;2023-08-20T07:17:48;10.93;;;2.63;;
68718;SDS011;55696;52.138;5.444;2023-08-20T07:20:15;7.55;;;2.83;;
68718;SDS011;55696;52.138;5.444;2023-08-20T07:22:42;9.03;;;2.37;;
68718;SDS011;55696;52.138;5.444;2023-08-20T07:25:09;9.45;;;3.13;;
68718;SDS011;55696;52.138;5.444;2023-08-20T07:27:35;9.35;;;2.42;;
68718;SDS011;55696;52.138;5.444;2023-08-20T07:30:03;10.95;;;3.05;;
68718;SDS011;55696;52.138;5.444;2023-08-20T07:32:30;10.63;;;2.28;;
68718;SDS011;55696;52.138;5.444;2023-08-20T07:34:57;9.10;;;2.00;;
68718;SDS011;55696;52.138;5.444;2023-08-20T07:37:24;7.05;;;2.00;;
68718;SDS011;55696;52.138;5.444;2023-08-20T07:39:51;14.82;;;2.83;;
68718;SDS011;55696;52.138;5.444;2023-08-20T07:42:18;10.27;;;2.05;;
68718;SDS011;55696;52.138;5.444;2023-08-20T07:44:45;9.35;;;2.47;;
68718;SDS011;55696;52.138;5.444;2023-08-20T07:47:12;16.27;;;2.60;;
68718;SDS011;55696;52.138;5.444;2023-08-20T07:49:39;12.20;;;2.50;;
68718;SDS011;55696;52.138;5.444;2023-08-20T07:52:05;9.73;;;2.15;;
68718;SDS011;55696;52.138;5.444;2023-08-20T07:54:32;8.95;;;2.03;;
68718;SDS011;55696;52.138;5.444;2023-08-20T07:56:59;9.05;;;2.00;;
68718;SDS011;55696;52.138;5.444;2023-08-20T07:59:26;9.93;;;1.93;;
68718;SDS011;55696;52.138;5.444;2023-08-20T08:01:53;8.10;;;2.47;;
68718;SDS011;55696;52.138;5.444;2023-08-20T08:04:19;10.13;;;2.00;;
68718;SDS011;55696;52.138;5.444;2023-08-20T08:06:46;9.13;;;1.90;;
68718;SDS011;55696;52.138;5.444;2023-08-20T08:09:18;7.97;;;1.90;;
68718;SDS011;55696;52.138;5.444;2023-08-20T08:11:49;7.77;;;1.70;;
68718;SDS011;55696;52.138;5.444;2023-08-20T08:14:16;7.07;;;1.70;;
68718;SDS011;55696;52.138;5.444;2023-08-20T08:16:44;7.78;;;2.10;;
68718;SDS011;55696;52.138;5.444;2023-08-20T08:19:12;8.43;;;1.65;;
68718;SDS011;55696;52.138;5.444;2023-08-20T08:21:41;9.70;;;2.05;;
68718;SDS011;55696;52.138;5.444;2023-08-20T08:24:10;6.57;;;1.77;;
68718;SDS011;55696;52.138;5.444;2023-08-20T08:26:37;5.63;;;1.65;;
68718;SDS011;55696;52.138;5.444;2023-08-20T08:29:04;8.50;;;1.55;;
68718;SDS011;55696;52.138;5.444;2023-08-20T08:31:32;6.82;;;1.63;;
68718;SDS011;55696;52.138;5.444;2023-08-20T08:34:00;7.00;;;1.38;;
68718;SDS011;55696;52.138;5.444;2023-08-20T08:36:29;6.63;;;1.90;;
68718;SDS011;55696;52.138;5.444;2023-08-20T08:38:56;5.63;;;1.52;;
68718;SDS011;55696;52.138;5.444;2023-08-20T08:41:22;6.82;;;1.80;;
68718;SDS011;55696;52.138;5.444;2023-08-20T08:43:51;6.75;;;1.65;;
68718;SDS011;55696;52.138;5.444;2023-08-20T08:46:19;6.82;;;1.65;;
68718;SDS011;55696;52.138;5.444;2023-08-20T08:48:47;5.67;;;1.63;;
68718;SDS011;55696;52.138;5.444;2023-08-20T08:51:14;6.68;;;1.65;;
68718;SDS011;55696;52.138;5.444;2023-08-20T08:53:44;7.82;;;1.40;;
68718;SDS011;55696;52.138;5.444;2023-08-20T08:56:12;7.85;;;1.77;;
68718;SDS011;55696;52.138;5.444;2023-08-20T08:58:39;8.45;;;1.80;;
68718;SDS011;55696;52.138;5.444;2023-08-20T09:01:06;5.80;;;1.53;;
68718;SDS011;55696;52.138;5.444;2023-08-20T09:03:33;6.38;;;1.60;;
68718;SDS011;55696;52.138;5.444;2023-08-20T09:06:01;5.82;;;1.98;;
68718;SDS011;55696;52.138;5.444;2023-08-20T09:08:33;4.85;;;1.30;;
68718;SDS011;55696;52.138;5.444;2023-08-20T09:11:00;4.65;;;1.38;;
68718;SDS011;55696;52.138;5.444;2023-08-20T09:13:38;6.20;;;1.50;;
68718;SDS011;55696;52.138;5.444;2023-08-20T09:16:08;6.28;;;1.30;;
68718;SDS011;55696;52.138;5.444;2023-08-20T09:18:39;4.00;;;1.42;;
68718;SDS011;55696;52.138;5.444;2023-08-20T09:21:07;4.53;;;1.25;;
68718;SDS011;55696;52.138;5.444;2023-08-20T09:23:35;6.45;;;1.77;;
68718;SDS011;55696;52.138;5.444;2023-08-20T09:26:04;5.90;;;1.50;;
68718;SDS011;55696;52.138;5.444;2023-08-20T09:28:41;4.03;;;1.40;;
68718;SDS011;55696;52.138;5.444;2023-08-20T09:31:12;5.05;;;1.60;;
68718;SDS011;55696;52.138;5.444;2023-08-20T09:33:49;3.83;;;1.13;;
68718;SDS011;55696;52.138;5.444;2023-08-20T09:36:17;5.57;;;1.35;;
68718;SDS011;55696;52.138;5.444;2023-08-20T09:38:44;4.57;;;1.30;;
68718;SDS011;55696;52.138;5.444;2023-08-20T09:41:13;6.50;;;1.63;;
68718;SDS011;55696;52.138;5.444;2023-08-20T09:43:39;4.70;;;1.35;;
68718;SDS011;55696;52.138;5.444;2023-08-20T09:46:09;7.00;;;1.30;;
68718;SDS011;55696;52.138;5.444;2023-08-20T09:48:38;5.60;;;1.50;;
68718;SDS011;55696;52.138;5.444;2023-08-20T09:51:10;5.00;;;1.40;;
68718;SDS011;55696;52.138;5.444;2023-08-20T09:53:40;5.57;;;1.30;;
68718;SDS011;55696;52.138;5.444;2023-08-20T09:56:36;7.70;;;1.98;;
68718;SDS011;55696;52.138;5.444;2023-08-20T09:59:04;5.40;;;1.38;;
68718;SDS011;55696;52.138;5.444;2023-08-20T10:01:32;4.60;;;1.58;;
68718;SDS011;55696;52.138;5.444;2023-08-20T10:04:00;3.90;;;1.30;;
68718;SDS011;55696;52.138;5.444;2023-08-20T10:06:29;3.72;;;1.40;;
68718;SDS011;55696;52.138;5.444;2023-08-20T10:08:59;7.95;;;2.67;;
68718;SDS011;55696;52.138;5.444;2023-08-20T10:11:26;8.23;;;4.38;;
68718;SDS011;55696;52.138;5.444;2023-08-20T10:13:53;4.97;;;1.70;;
68718;SDS011;55696;52.138;5.444;2023-08-20T10:16:20;6.95;;;1.95;;
68718;SDS011;55696;52.138;5.444;2023-08-20T10:18:49;6.75;;;2.35;;
68718;SDS011;55696;52.138;5.444;2023-08-20T10:21:16;6.07;;;2.20;;
68718;SDS011;55696;52.138;5.444;2023-08-20T10:23:48;5.30;;;1.40;;
68718;SDS011;55696;52.138;5.444;2023-08-20T10:26:15;6.70;;;1.42;;
68718;SDS011;55696;52.138;5.444;2023-08-20T10:28:43;5.40;;;1.27;;
68718;SDS011;55696;52.138;5.444;2023-08-20T10:31:10;5.68;;;1.42;;
68718;SDS011;55696;52.138;5.444;2023-08-20T10:33:47;4.25;;;1.25;;
68718;SDS011;55696;52.138;5.444;2023-08-20T10:36:21;5.43;;;1.10;;
68718;SDS011;55696;52.138;5.444;2023-08-20T10:38:52;4.90;;;1.13;;
68718;SDS011;55696;52.138;5.444;2023-08-20T10:41:26;6.07;;;2.38;;
68718;SDS011;55696;52.138;5.444;2023-08-20T10:43:58;3.45;;;1.10;;
68718;SDS011;55696;52.138;5.444;2023-08-20T10:46:29;5.85;;;1.77;;
68718;SDS011;55696;52.138;5.444;2023-08-20T10:48:58;5.00;;;1.83;;
68718;SDS011;55696;52.138;5.444;2023-08-20T10:51:27;5.40;;;1.48;;
68718;SDS011;55696;52.138;5.444;2023-08-20T10:56:48;4.72;;;1.40;;
68718;SDS011;55696;52.138;5.444;2023-08-20T10:59:27;5.15;;;1.38;;
68718;SDS011;55696;52.138;5.444;2023-08-20T11:01:56;4.57;;;1.30;;
68718;SDS011;55696;52.138;5.444;2023-08-20T11:04:26;3.47;;;1.15;;
68718;SDS011;55696;52.138;5.444;2023-08-20T11:06:57;4.03;;;1.30;;
68718;SDS011;55696;52.138;5.444;2023-08-20T11:09:26;5.25;;;1.42;;
68718;SDS011;55696;52.138;5.444;2023-08-20T11:11:54;3.97;;;1.30;;
68718;SDS011;55696;52.138;5.444;2023-08-20T11:14:22;5.43;;;1.40;;
68718;SDS011;55696;52.138;5.444;2023-08-20T11:16:49;5.68;;;1.30;;
68718;SDS011;55696;52.138;5.444;2023-08-20T11:19:20;13.45;;;1.45;;
68718;SDS011;55696;52.138;5.444;2023-08-20T11:21:49;6.72;;;1.90;;
68718;SDS011;55696;52.138;5.444;2023-08-20T11:24:16;5.95;;;1.40;;
68718;SDS011;55696;52.138;5.444;2023-08-20T11:26:47;4.03;;;1.58;;
68718;SDS011;55696;52.138;5.444;2023-08-20T11:29:15;6.75;;;1.30;;
68718;SDS011;55696;52.138;5.444;2023-08-20T11:31:47;4.72;;;1.30;;
68718;SDS011;55696;52.138;5.444;2023-08-20T11:34:14;6.63;;;1.55;;
68718;SDS011;55696;52.138;5.444;2023-08-20T11:36:42;4.13;;;1.27;;
68718;SDS011;55696;52.138;5.444;2023-08-20T11:39:10;5.72;;;1.40;;
68718;SDS011;55696;52.138;5.444;2023-08-20T11:41:38;5.55;;;1.60;;
68718;SDS011;55696;52.138;5.444;2023-08-20T11:44:08;4.50;;;1.38;;
68718;SDS011;55696;52.138;5.444;2023-08-20T11:46:41;4.38;;;1.20;;
68718;SDS011;55696;52.138;5.444;2023-08-20T11:49:10;4.80;;;1.10;;
68718;SDS011;55696;52.138;5.444;2023-08-20T11:51:39;5.50;;;1.42;;
68718;SDS011;55696;52.138;5.444;2023-08-20T11:54:16;3.45;;;1.48;;
68718;SDS011;55696;52.138;5.444;2023-08-20T11:56:48;6.07;;;1.30;;
68718;SDS011;55696;52.138;5.444;2023-08-20T11:59:17;5.18;;;1.20;;
68718;SDS011;55696;52.138;5.444;2023-08-20T12:01:52;7.32;;;1.85;;
68718;SDS011;55696;52.138;5.444;2023-08-20T12:04:26;6.15;;;1.35;;
68718;SDS011;55696;52.138;5.444;2023-08-20T12:07:04;5.00;;;1.52;;
68718;SDS011;55696;52.138;5.444;2023-08-20T12:09:32;3.67;;;1.40;;
68718;SDS011;55696;52.138;5.444;2023-08-20T12:11:59;7.13;;;2.05;;
68718;SDS011;55696;52.138;5.444;2023-08-20T12:14:27;6.13;;;1.50;;
68718;SDS011;55696;52.138;5.444;2023-08-20T12:16:54;4.70;;;1.65;;
68718;SDS011;55696;52.138;5.444;2023-08-20T12:19:21;4.78;;;1.40;;
68718;SDS011;55696;52.138;5.444;2023-08-20T12:21:49;4.25;;;1.48;;
68718;SDS011;55696;52.138;5.444;2023-08-20T12:24:16;5.40;;;1.67;;
68718;SDS011;55696;52.138;5.444;2023-08-20T12:26:45;6.03;;;1.70;;
68718;SDS011;55696;52.138;5.444;2023-08-20T12:29:12;2.83;;;1.20;;
68718;SDS011;55696;52.138;5.444;2023-08-20T12:31:39;4.18;;;1.50;;
68718;SDS011;55696;52.138;5.444;2023-08-20T12:34:07;4.28;;;1.73;;
68718;SDS011;55696;52.138;5.444;2023-08-20T12:36:35;7.10;;;1.70;;
68718;SDS011;55696;52.138;5.444;2023-08-20T12:39:02;6.47;;;1.70;;
68718;SDS011;55696;52.138;5.444;2023-08-20T12:41:33;2.30;;;1.27;;
68718;SDS011;55696;52.138;5.444;2023-08-20T12:44:02;5.03;;;1.70;;
68718;SDS011;55696;52.138;5.444;2023-08-20T12:46:29;5.78;;;1.80;;
68718;SDS011;55696;52.138;5.444;2023-08-20T12:48:56;3.47;;;1.08;;
68718;SDS011;55696;52.138;5.444;2023-08-20T12:51:23;5.22;;;1.35;;
68718;SDS011;55696;52.138;5.444;2023-08-20T12:53:50;5.15;;;1.15;;
68718;SDS011;55696;52.138;5.444;2023-08-20T12:56:17;8.57;;;1.42;;
68718;SDS011;55696;52.138;5.444;2023-08-20T12:58:44;5.50;;;1.48;;
68718;SDS011;55696;52.138;5.444;2023-08-20T13:01:10;5.85;;;1.30;;
68718;SDS011;55696;52.138;5.444;2023-08-20T13:03:38;3.38;;;1.20;;
68718;SDS011;55696;52.138;5.444;2023-08-20T13:06:05;3.58;;;1.15;;
68718;SDS011;55696;52.138;5.444;2023-08-20T13:08:33;5.07;;;1.65;;
68718;SDS011;55696;52.138;5.444;2023-08-20T13:11:00;4.03;;;1.10;;
68718;SDS011;55696;52.138;5.444;2023-08-20T13:13:29;4.18;;;1.85;;
68718;SDS011;55696;52.138;5.444;2023-08-20T13:16:00;2.60;;;1.25;;
68718;SDS011;55696;52.138;5.444;2023-08-20T13:18:27;6.28;;;1.30;;
68718;SDS011;55696;52.138;5.444;2023-08-20T13:20:54;4.13;;;1.30;;
68718;SDS011;55696;52.138;5.444;2023-08-20T13:23:21;3.15;;;0.98;;
68718;SDS011;55696;52.138;5.444;2023-08-20T13:25:49;4.18;;;1.45;;
68718;SDS011;55696;52.138;5.444;2023-08-20T13:28:16;3.67;;;1.13;;
68718;SDS011;55696;52.138;5.444;2023-08-20T13:30:44;5.13;;;1.30;;
68718;SDS011;55696;52.138;5.444;2023-08-20T13:33:12;3.20;;;1.00;;
68718;SDS011;55696;52.138;5.444;2023-08-20T13:35:40;4.53;;;1.40;;
68718;SDS011;55696;52.138;5.444;2023-08-20T13:38:07;7.25;;;1.38;;
68718;SDS011;55696;52.138;5.444;2023-08-20T13:40:34;5.47;;;1.50;;
68718;SDS011;55696;52.138;5.444;2023-08-20T13:43:01;5.63;;;1.42;;
68718;SDS011;55696;52.138;5.444;2023-08-20T13:45:29;5.85;;;1.30;;
68718;SDS011;55696;52.138;5.444;2023-08-20T13:47:55;5.03;;;1.42;;
68718;SDS011;55696;52.138;5.444;2023-08-20T13:50:22;4.60;;;1.17;;
68718;SDS011;55696;52.138;5.444;2023-08-20T13:52:49;5.18;;;1.38;;
68718;SDS011;55696;52.138;5.444;2023-08-20T13:55:16;5.82;;;1.52;;
68718;SDS011;55696;52.138;5.444;2023-08-20T13:57:43;5.25;;;1.60;;
68718;SDS011;55696;52.138;5.444;2023-08-20T14:00:10;6.53;;;1.30;;
68718;SDS011;55696;52.138;5.444;2023-08-20T14:02:39;5.75;;;1.50;;
68718;SDS011;55696;52.138;5.444;2023-08-20T14:05:06;6.22;;;2.10;;
68718;SDS011;55696;52.138;5.444;2023-08-20T14:07:33;4.82;;;1.40;;
68718;SDS011;55696;52.138;5.444;2023-08-20T14:10:03;4.80;;;1.38;;
68718;SDS011;55696;52.138;5.444;2023-08-20T14:12:30;4.93;;;1.27;;
68718;SDS011;55696;52.138;5.444;2023-08-20T14:14:58;6.32;;;2.05;;
68718;SDS011;55696;52.138;5.444;2023-08-20T14:17:24;4.20;;;1.33;;
68718;SDS011;55696;52.138;5.444;2023-08-20T14:19:52;7.03;;;1.80;;
68718;SDS011;55696;52.138;5.444;2023-08-20T14:22:18;5.72;;;1.70;;
68718;SDS011;55696;52.138;5.444;2023-08-20T14:24:45;3.53;;;1.40;;
68718;SDS011;55696;52.138;5.444;2023-08-20T14:27:13;4.25;;;1.45;;
68718;SDS011;55696;52.138;5.444;2023-08-20T14:29:40;5.97;;;1.92;;
68718;SDS011;55696;52.138;5.444;2023-08-20T14:32:08;5.07;;;1.50;;
68718;SDS011;55696;52.138;5.444;2023-08-20T14:34:34;7.32;;;1.40;;
68718;SDS011;55696;52.138;5.444;2023-08-20T14:37:01;5.43;;;1.30;;
68718;SDS011;55696;52.138;5.444;2023-08-20T14:39:29;3.88;;;1.30;;
68718;SDS011;55696;52.138;5.444;2023-08-20T14:41:58;7.57;;;1.60;;
68718;SDS011;55696;52.138;5.444;2023-08-20T14:44:25;5.55;;;1.85;;
68718;SDS011;55696;52.138;5.444;2023-08-20T14:46:52;3.38;;;1.50;;
68718;SDS011;55696;52.138;5.444;2023-08-20T14:49:19;8.63;;;1.83;;
68718;SDS011;55696;52.138;5.444;2023-08-20T14:51:45;6.47;;;1.70;;